Time;durP1;ratioP1;P1;durP2;ratioP2;P2;SDS_P1;SDS_P2;PMS_P1;PMS_P2;Temp;Humidity;BMP_temperature;BMP_pressure;BME280_temperature;BME280_humidity;BME280_pressure;Samples;Min_cycle;Max_cycle;Signal;HPM_P1;HPM_P2
2022/11/12 00:00:29;;;;;;;40.33;23.65;;;8.10;99.90;;;;;;5108888;28;20031;-69
2022/11/12 00:02:55;;;;;;;36.35;20.40;;;8.10;99.90;;;;;;5093478;27;20028;-70
2022/11/12 00:05:21;;;;;;;34.88;20.33;;;8.00;99.90;;;;;;5103506;28;20030;-68
2022/11/12 00:07:46;;;;;;;35.47;21.73;;;8.00;99.90;;;;;;5108688;28;20367;-69
2022/11/12 00:10:12;;;;;;;30.80;17.95;;;8.10;99.90;;;;;;5102463;28;20035;-68
2022/11/12 00:12:37;;;;;;;32.17;19.98;;;8.00;99.90;;;;;;5113808;28;20028;-68
2022/11/12 00:15:03;;;;;;;30.67;18.63;;;8.00;99.90;;;;;;5100833;27;20028;-68
2022/11/12 00:17:29;;;;;;;27.80;18.92;;;8.00;99.90;;;;;;5106950;28;20349;-69
2022/11/12 00:19:54;;;;;;;36.13;20.15;;;8.10;99.90;;;;;;5104031;28;20028;-68
2022/11/12 00:22:21;;;;;;;28.80;19.38;;;8.00;99.90;;;;;;5106725;28;20354;-68
2022/11/12 00:24:46;;;;;;;29.40;18.27;;;8.00;99.90;;;;;;5098572;28;20027;-68
2022/11/12 00:27:12;;;;;;;30.60;18.80;;;8.00;99.90;;;;;;5100990;28;20028;-69
2022/11/12 00:29:38;;;;;;;30.52;19.45;;;8.00;99.90;;;;;;5099390;28;20099;-68
2022/11/12 00:32:08;;;;;;;27.55;17.52;;;8.00;99.90;;;;;;5106930;28;20062;-68
2022/11/12 00:34:34;;;;;;;30.67;18.88;;;7.90;99.90;;;;;;5108996;28;20046;-68
2022/11/12 00:37:00;;;;;;;24.98;17.20;;;7.90;99.90;;;;;;5103743;28;20480;-68
2022/11/12 00:39:26;;;;;;;27.88;17.88;;;7.90;99.90;;;;;;5106139;28;20107;-68
2022/11/12 00:41:52;;;;;;;27.98;19.42;;;7.90;99.90;;;;;;5104353;28;20016;-69
2022/11/12 00:44:17;;;;;;;30.13;20.63;;;7.90;99.90;;;;;;5104108;28;20361;-68
2022/11/12 00:46:43;;;;;;;36.25;22.67;;;7.90;99.90;;;;;;5106122;28;20020;-68
2022/11/12 00:49:09;;;;;;;32.72;21.58;;;7.90;99.90;;;;;;5103382;28;20032;-68
2022/11/12 00:51:35;;;;;;;35.10;22.48;;;7.90;99.90;;;;;;5108340;28;20101;-68
2022/11/12 00:54:00;;;;;;;34.60;23.65;;;7.90;99.90;;;;;;5105726;28;20027;-69
2022/11/12 00:56:26;;;;;;;34.83;22.27;;;7.80;99.90;;;;;;5103082;27;20036;-68
2022/11/12 00:58:52;;;;;;;32.05;19.10;;;7.90;99.90;;;;;;5102592;28;20158;-69
2022/11/12 01:01:18;;;;;;;29.58;18.92;;;7.80;99.90;;;;;;5105268;28;20027;-68
2022/11/12 01:03:43;;;;;;;30.67;20.10;;;7.80;99.90;;;;;;5092730;28;20031;-68
2022/11/12 01:06:16;;;;;;;28.85;20.00;;;7.70;99.90;;;;;;5106387;28;20050;-68
2022/11/12 01:08:42;;;;;;;32.00;21.50;;;7.70;99.90;;;;;;5104629;27;20047;-68
2022/11/12 01:11:11;;;;;;;36.75;22.13;;;7.70;99.90;;;;;;5102612;28;20036;-68
2022/11/12 01:13:38;;;;;;;30.95;21.52;;;7.80;99.90;;;;;;5107071;28;20077;-68
2022/11/12 01:16:09;;;;;;;35.55;23.38;;;7.80;99.90;;;;;;5106508;28;20031;-68
2022/11/12 01:18:35;;;;;;;37.30;22.75;;;7.80;99.90;;;;;;5106665;28;20085;-68
2022/11/12 01:21:02;;;;;;;36.92;23.90;;;7.80;99.90;;;;;;5104946;27;20028;-68
2022/11/12 01:23:28;;;;;;;42.65;24.42;;;7.80;99.90;;;;;;5102166;28;20019;-68
2022/11/12 01:25:54;;;;;;;45.55;28.52;;;7.70;99.90;;;;;;5107910;28;20036;-68
2022/11/12 01:28:19;;;;;;;43.70;29.40;;;7.80;99.90;;;;;;5103280;28;20024;-68
2022/11/12 01:30:45;;;;;;;59.28;34.50;;;7.80;99.90;;;;;;5090055;28;20046;-68
2022/11/12 01:33:10;;;;;;;49.03;30.52;;;7.80;99.90;;;;;;5106099;28;20023;-68
2022/11/12 01:35:36;;;;;;;51.28;32.38;;;7.80;99.90;;;;;;5108830;27;20035;-68
2022/11/12 01:38:02;;;;;;;49.97;31.95;;;7.80;99.90;;;;;;5102106;28;20038;-69
2022/11/12 01:40:27;;;;;;;47.28;27.95;;;7.70;99.90;;;;;;5107960;27;20028;-68
2022/11/12 01:42:53;;;;;;;48.88;28.73;;;7.70;99.90;;;;;;5104799;28;20479;-69
2022/11/12 01:45:19;;;;;;;43.53;28.60;;;7.70;99.90;;;;;;5106743;28;20024;-68
2022/11/12 01:47:48;;;;;;;43.47;25.50;;;7.70;99.90;;;;;;5098707;28;20020;-68
2022/11/12 01:50:22;;;;;;;42.83;24.92;;;7.70;99.90;;;;;;5103756;28;20395;-68
2022/11/12 01:52:55;;;;;;;39.10;25.13;;;7.70;99.90;;;;;;5103526;28;20027;-68
2022/11/12 01:55:29;;;;;;;36.75;22.80;;;7.70;99.90;;;;;;5102549;28;20055;-67
2022/11/12 01:58:10;;;;;;;33.83;21.48;;;7.70;99.90;;;;;;5109904;28;20496;-68
2022/11/12 02:00:36;;;;;;;34.47;21.48;;;7.60;99.90;;;;;;5103289;28;20020;-68
2022/11/12 02:03:07;;;;;;;28.95;18.75;;;7.60;99.90;;;;;;5101020;28;20030;-68
2022/11/12 02:05:35;;;;;;;28.30;19.25;;;7.50;99.90;;;;;;5108307;28;20046;-69
2022/11/12 02:08:02;;;;;;;34.78;20.92;;;7.60;99.90;;;;;;5100778;28;20035;-68
2022/11/12 02:10:28;;;;;;;35.78;21.67;;;7.50;99.90;;;;;;5107424;28;20024;-68
2022/11/12 02:15:40;;;;;;;38.40;23.33;;;7.50;99.90;;;;;;5101131;28;20075;-68
2022/11/12 02:18:07;;;;;;;38.38;23.27;;;7.50;99.90;;;;;;5110364;28;20031;-68
2022/11/12 02:20:34;;;;;;;30.33;20.02;;;7.40;99.90;;;;;;5101670;28;20119;-68
2022/11/12 02:23:00;;;;;;;31.15;21.67;;;7.40;99.90;;;;;;5107620;28;20515;-68
2022/11/12 02:25:26;;;;;;;33.83;20.45;;;7.40;99.90;;;;;;5101569;28;20110;-69
2022/11/12 02:27:54;;;;;;;30.33;19.60;;;7.40;99.90;;;;;;5107184;28;20067;-68
2022/11/12 02:30:36;;;;;;;33.47;19.83;;;7.30;99.90;;;;;;5100946;28;20039;-68
2022/11/12 02:33:02;;;;;;;24.63;17.92;;;7.30;99.90;;;;;;5106970;28;20026;-68
2022/11/12 02:35:28;;;;;;;27.95;18.33;;;7.30;99.90;;;;;;5102048;28;20081;-68
2022/11/12 02:37:54;;;;;;;23.77;16.33;;;7.30;99.90;;;;;;5106857;28;20029;-68
2022/11/12 02:40:20;;;;;;;27.35;18.23;;;7.30;99.90;;;;;;5105310;28;20069;-68
2022/11/12 02:42:46;;;;;;;29.05;18.67;;;7.30;99.90;;;;;;5099578;28;20024;-68
2022/11/12 02:45:12;;;;;;;32.45;19.23;;;7.30;99.90;;;;;;5104845;28;20537;-68
2022/11/12 02:47:38;;;;;;;30.48;20.52;;;7.30;99.90;;;;;;5102388;28;20505;-68
2022/11/12 02:50:04;;;;;;;29.27;17.88;;;7.30;99.90;;;;;;5100989;28;20028;-68
2022/11/12 02:52:31;;;;;;;30.13;17.30;;;7.30;99.90;;;;;;5104026;28;20016;-68
2022/11/12 02:54:56;;;;;;;28.27;17.48;;;7.30;99.90;;;;;;5092997;28;20012;-68
2022/11/12 02:57:22;;;;;;;23.77;16.40;;;7.30;99.90;;;;;;5099912;28;20170;-68
2022/11/12 02:59:48;;;;;;;26.52;16.95;;;7.30;99.90;;;;;;5103798;28;20020;-68
2022/11/12 03:02:13;;;;;;;25.45;16.45;;;7.30;99.90;;;;;;5098895;28;20016;-68
2022/11/12 03:04:39;;;;;;;27.85;17.45;;;7.30;99.90;;;;;;5102799;28;20119;-68
2022/11/12 03:07:05;;;;;;;22.88;15.73;;;7.30;99.90;;;;;;5104827;28;20095;-67
2022/11/12 03:09:31;;;;;;;22.38;15.88;;;7.30;99.90;;;;;;5102162;28;20047;-68
2022/11/12 03:11:56;;;;;;;24.17;15.35;;;7.20;99.90;;;;;;5102796;28;20038;-68
2022/11/12 03:14:22;;;;;;;26.65;15.50;;;7.20;99.90;;;;;;5105815;28;20020;-68
2022/11/12 03:16:48;;;;;;;26.63;17.20;;;7.20;99.90;;;;;;5104998;28;20052;-68
2022/11/12 03:19:13;;;;;;;28.05;15.85;;;7.20;99.90;;;;;;5104957;28;20430;-68
2022/11/12 03:21:39;;;;;;;22.15;15.95;;;7.20;99.90;;;;;;5104735;28;20023;-68
2022/11/12 03:24:05;;;;;;;25.48;16.73;;;7.20;99.90;;;;;;5109779;28;20070;-68
2022/11/12 03:26:30;;;;;;;25.25;15.93;;;7.20;99.90;;;;;;5101045;28;20555;-68
2022/11/12 03:28:56;;;;;;;24.80;16.13;;;7.20;99.90;;;;;;5101690;28;20024;-68
2022/11/12 03:31:22;;;;;;;25.08;17.13;;;7.20;99.90;;;;;;5097726;28;20500;-68
2022/11/12 03:33:47;;;;;;;20.08;14.57;;;7.20;99.90;;;;;;5102808;28;20028;-68
2022/11/12 03:36:13;;;;;;;25.27;16.45;;;7.10;99.90;;;;;;5103441;28;20080;-68
2022/11/12 03:38:39;;;;;;;22.25;14.80;;;7.00;99.90;;;;;;5102220;28;20070;-68
2022/11/12 03:41:04;;;;;;;26.05;15.18;;;7.00;99.90;;;;;;5112205;28;20077;-68
2022/11/12 03:43:30;;;;;;;21.60;15.63;;;7.00;99.90;;;;;;5104323;28;20480;-68
2022/11/12 03:45:56;;;;;;;22.65;15.07;;;7.00;99.90;;;;;;5104508;28;20055;-68
2022/11/12 03:48:22;;;;;;;22.55;13.40;;;7.00;99.90;;;;;;5109574;28;20026;-68
2022/11/12 03:50:48;;;;;;;20.50;14.68;;;7.00;99.90;;;;;;5105113;27;20436;-68
2022/11/12 03:53:13;;;;;;;20.08;13.27;;;7.00;99.90;;;;;;5109967;28;20022;-68
2022/11/12 03:55:39;;;;;;;18.65;14.13;;;7.00;99.90;;;;;;5101079;28;20095;-68
2022/11/12 03:58:05;;;;;;;22.27;14.52;;;7.00;99.90;;;;;;5103610;28;20652;-68
2022/11/12 04:00:30;;;;;;;18.48;13.35;;;7.00;99.90;;;;;;5102550;27;20511;-68
2022/11/12 04:02:57;;;;;;;23.33;13.65;;;7.10;99.90;;;;;;5108088;28;20027;-68
2022/11/12 04:08:36;;;;;;;21.98;13.00;;;7.10;99.90;;;;;;5112809;28;20045;-67
2022/11/12 04:11:13;;;;;;;18.98;12.07;;;7.00;99.90;;;;;;5106080;28;20036;-68
2022/11/12 04:13:41;;;;;;;21.65;13.18;;;7.00;99.90;;;;;;5103855;27;20081;-68
2022/11/12 04:21:54;;;;;;;16.95;11.93;;;7.10;99.90;;;;;;5112563;28;20050;-68
2022/11/12 04:27:14;;;;;;;18.42;12.57;;;7.10;99.90;;;;;;5110516;28;20058;-68
2022/11/12 04:32:25;;;;;;;18.50;13.13;;;7.10;99.90;;;;;;5100282;27;20108;-68
2022/11/12 04:34:51;;;;;;;23.75;13.35;;;7.10;99.90;;;;;;5105980;28;20031;-68
2022/11/12 04:37:17;;;;;;;22.48;13.73;;;7.00;99.90;;;;;;5107024;28;20408;-68
2022/11/12 04:39:43;;;;;;;21.35;14.40;;;7.00;99.90;;;;;;5102640;27;20027;-68
2022/11/12 04:45:02;;;;;;;19.20;13.40;;;7.00;99.90;;;;;;5108204;28;20058;-68
2022/11/12 04:47:34;;;;;;;19.30;12.43;;;7.00;99.90;;;;;;5104512;28;20020;-68
2022/11/12 04:50:00;;;;;;;19.95;12.50;;;7.00;99.90;;;;;;5106994;28;20107;-69
2022/11/12 04:52:28;;;;;;;21.80;13.85;;;7.00;99.90;;;;;;5104412;28;20034;-68
2022/11/12 04:54:54;;;;;;;21.73;13.70;;;7.00;99.90;;;;;;5104193;27;20016;-68
2022/11/12 04:57:20;;;;;;;18.42;12.80;;;7.00;99.90;;;;;;5109060;28;20391;-68
2022/11/12 04:59:46;;;;;;;20.27;13.85;;;6.90;99.90;;;;;;5104144;27;20027;-68
2022/11/12 05:02:13;;;;;;;22.42;14.05;;;6.90;99.90;;;;;;5107863;28;20024;-68
2022/11/12 05:04:38;;;;;;;19.10;13.10;;;6.90;99.90;;;;;;5104246;28;20028;-68
2022/11/12 05:07:04;;;;;;;23.17;13.52;;;6.90;99.90;;;;;;5110370;28;20035;-68
2022/11/12 05:09:30;;;;;;;19.05;12.30;;;6.80;99.90;;;;;;5104038;28;20035;-68
2022/11/12 05:11:56;;;;;;;18.77;12.35;;;6.80;99.90;;;;;;5105511;28;20046;-68
2022/11/12 05:14:22;;;;;;;19.58;12.57;;;6.90;99.90;;;;;;5103669;28;20025;-68
2022/11/12 05:16:48;;;;;;;18.73;13.02;;;6.90;99.90;;;;;;5105801;28;20471;-68
2022/11/12 05:19:14;;;;;;;15.77;12.02;;;6.90;99.90;;;;;;5108267;28;20031;-68
2022/11/12 05:24:24;;;;;;;23.80;13.23;;;6.90;99.90;;;;;;5105041;28;20518;-67
2022/11/12 05:26:50;;;;;;;19.88;13.20;;;6.90;99.90;;;;;;5109944;28;20061;-68
2022/11/12 05:29:16;;;;;;;20.20;11.98;;;6.80;99.90;;;;;;5108425;28;20031;-68
2022/11/12 05:31:41;;;;;;;22.33;13.07;;;6.80;99.90;;;;;;5104669;28;20035;-68
2022/11/12 05:34:07;;;;;;;18.33;12.60;;;6.80;99.90;;;;;;5109314;28;20026;-68
2022/11/12 05:36:33;;;;;;;20.83;13.10;;;6.80;99.90;;;;;;5090941;28;20468;-68
2022/11/12 05:38:59;;;;;;;20.70;12.70;;;6.70;99.90;;;;;;5108491;28;20445;-68
2022/11/12 05:41:24;;;;;;;20.77;12.63;;;6.70;99.90;;;;;;5106046;28;20032;-68
2022/11/12 05:43:50;;;;;;;21.35;12.63;;;6.80;99.90;;;;;;5104039;28;20024;-68
2022/11/12 05:46:16;;;;;;;18.95;12.18;;;6.80;99.90;;;;;;5105357;28;20028;-68
2022/11/12 05:48:42;;;;;;;16.35;11.15;;;6.80;99.90;;;;;;5102590;28;20085;-68
2022/11/12 05:51:08;;;;;;;20.42;12.68;;;6.80;99.90;;;;;;5109779;28;20114;-68
2022/11/12 05:53:33;;;;;;;19.77;12.07;;;6.80;99.90;;;;;;5103982;28;20019;-68
2022/11/12 05:56:04;;;;;;;16.38;13.13;;;6.80;99.90;;;;;;5102421;28;20036;-68
2022/11/12 05:58:30;;;;;;;17.27;12.25;;;6.90;99.90;;;;;;5108691;28;20030;-68
2022/11/12 06:00:56;;;;;;;15.68;12.13;;;6.80;99.90;;;;;;5103484;28;20087;-68
2022/11/12 06:03:23;;;;;;;21.83;12.02;;;6.80;99.90;;;;;;5108128;28;20491;-68
2022/11/12 06:05:48;;;;;;;21.58;12.60;;;6.80;99.90;;;;;;5101447;28;20107;-68
2022/11/12 06:08:14;;;;;;;22.70;12.80;;;6.80;99.90;;;;;;5101522;28;20098;-68
2022/11/12 06:10:40;;;;;;;22.23;12.30;;;6.80;99.90;;;;;;5103468;28;20042;-68
2022/11/12 06:13:06;;;;;;;22.25;13.18;;;6.80;99.90;;;;;;5091111;28;20118;-68
2022/11/12 06:15:32;;;;;;;19.13;13.10;;;6.70;99.90;;;;;;5101753;28;20035;-68
2022/11/12 06:17:58;;;;;;;19.48;11.02;;;6.80;99.90;;;;;;5103055;28;20098;-68
2022/11/12 06:20:24;;;;;;;21.55;13.00;;;6.80;99.90;;;;;;5100844;28;20115;-68
2022/11/12 06:22:50;;;;;;;20.00;12.38;;;6.80;99.90;;;;;;5104013;28;20026;-68
2022/11/12 06:25:16;;;;;;;18.55;12.52;;;6.70;99.90;;;;;;5101967;28;20024;-68
2022/11/12 06:27:41;;;;;;;23.38;11.57;;;6.60;99.90;;;;;;5100973;28;20023;-68
2022/11/12 06:30:08;;;;;;;22.48;12.98;;;6.70;99.90;;;;;;5090253;28;20561;-68
2022/11/12 06:32:34;;;;;;;18.17;11.40;;;6.60;99.90;;;;;;5106234;28;20040;-68
2022/11/12 06:34:59;;;;;;;19.95;11.95;;;6.60;99.90;;;;;;5102327;28;20497;-68
2022/11/12 06:37:25;;;;;;;18.95;12.60;;;6.50;99.90;;;;;;5103371;28;20096;-68
2022/11/12 06:39:51;;;;;;;20.05;11.80;;;6.50;99.90;;;;;;5101701;28;20076;-68
2022/11/12 06:42:17;;;;;;;26.10;12.07;;;6.50;99.90;;;;;;5107054;28;20032;-68
2022/11/12 06:44:42;;;;;;;19.77;12.23;;;6.60;99.90;;;;;;5100617;28;20077;-68
2022/11/12 06:47:09;;;;;;;18.05;10.82;;;6.60;99.90;;;;;;5109500;28;20028;-68
2022/11/12 06:49:34;;;;;;;21.00;11.93;;;6.60;99.90;;;;;;5098240;28;20043;-68
2022/11/12 06:52:00;;;;;;;20.50;13.57;;;6.60;99.90;;;;;;5103733;28;20476;-68
2022/11/12 06:54:26;;;;;;;14.38;10.40;;;6.50;99.90;;;;;;5105300;28;20035;-68
2022/11/12 06:56:52;;;;;;;17.17;10.38;;;6.50;99.90;;;;;;5099388;28;20488;-68
2022/11/12 06:59:17;;;;;;;16.08;10.45;;;6.50;99.90;;;;;;5105239;28;20019;-68
2022/11/12 07:01:43;;;;;;;18.60;11.00;;;6.50;99.90;;;;;;5104882;28;20047;-68
2022/11/12 07:04:09;;;;;;;14.23;9.50;;;6.60;99.90;;;;;;5101573;28;20031;-68
2022/11/12 07:06:35;;;;;;;17.92;10.23;;;6.60;99.90;;;;;;5090615;28;20062;-68
2022/11/12 07:09:01;;;;;;;17.45;10.75;;;6.60;99.90;;;;;;5103836;28;20460;-68
2022/11/12 07:11:27;;;;;;;15.43;11.00;;;6.60;99.90;;;;;;5107891;28;20039;-68
2022/11/12 07:13:53;;;;;;;20.58;12.02;;;6.60;99.90;;;;;;5110471;28;20028;-68
2022/11/12 07:16:18;;;;;;;20.05;11.77;;;6.60;99.90;;;;;;5109910;28;20055;-68
2022/11/12 07:18:45;;;;;;;15.55;9.93;;;6.60;99.90;;;;;;5097307;28;20506;-68
2022/11/12 07:21:13;;;;;;;17.83;9.98;;;6.60;99.90;;;;;;5094711;28;20115;-68
2022/11/12 07:23:39;;;;;;;13.93;10.38;;;6.60;99.90;;;;;;5111932;28;20118;-68
2022/11/12 07:26:21;;;;;;;19.65;10.80;;;6.60;99.90;;;;;;5110172;28;20106;-68
2022/11/12 07:28:49;;;;;;;19.80;12.10;;;6.50;99.90;;;;;;5107406;28;20784;-68
2022/11/12 07:31:16;;;;;;;16.75;11.63;;;6.50;99.90;;;;;;5106424;28;20309;-68
2022/11/12 07:33:42;;;;;;;20.33;11.30;;;6.40;99.90;;;;;;5110540;28;20380;-68
2022/11/12 07:36:10;;;;;;;17.73;11.50;;;6.50;99.90;;;;;;5102984;28;20027;-68
2022/11/12 07:38:38;;;;;;;16.27;10.88;;;6.50;99.90;;;;;;5111967;28;20043;-68
2022/11/12 07:41:05;;;;;;;18.35;11.65;;;6.60;99.90;;;;;;5108574;27;20016;-68
2022/11/12 07:43:33;;;;;;;20.67;12.00;;;6.60;99.90;;;;;;5111932;28;20024;-68
2022/11/12 07:46:00;;;;;;;20.08;11.70;;;6.60;99.90;;;;;;5107196;27;20139;-68
2022/11/12 07:48:28;;;;;;;16.52;11.02;;;6.60;99.90;;;;;;5108184;28;20031;-68
2022/11/12 07:51:01;;;;;;;20.02;11.98;;;6.60;99.90;;;;;;5092155;28;20116;-68
2022/11/12 07:53:28;;;;;;;16.42;10.85;;;6.70;99.90;;;;;;5106791;28;20023;-68
2022/11/12 07:55:55;;;;;;;20.35;11.43;;;6.70;99.90;;;;;;5108374;28;20019;-68
2022/11/12 07:58:21;;;;;;;22.50;13.10;;;6.70;99.90;;;;;;5109603;28;20456;-68
2022/11/12 08:00:47;;;;;;;20.15;12.40;;;6.60;99.90;;;;;;5109196;28;20055;-68
2022/11/12 08:03:13;;;;;;;16.35;11.57;;;6.60;99.90;;;;;;5107059;28;20475;-68
2022/11/12 08:05:38;;;;;;;22.58;12.27;;;6.60;99.90;;;;;;5107140;28;20023;-68
2022/11/12 08:08:04;;;;;;;22.88;12.02;;;6.60;99.90;;;;;;5110044;28;20473;-68
2022/11/12 08:10:29;;;;;;;17.95;11.60;;;6.60;99.90;;;;;;5091427;28;20023;-69
2022/11/12 08:12:55;;;;;;;15.98;10.35;;;6.70;99.90;;;;;;5110463;28;20035;-69
2022/11/12 08:15:21;;;;;;;20.08;11.52;;;6.70;99.90;;;;;;5098436;28;20165;-69
2022/11/12 08:17:47;;;;;;;21.08;12.30;;;6.80;99.90;;;;;;5112307;28;20177;-69
2022/11/12 08:20:13;;;;;;;18.38;12.07;;;6.90;99.90;;;;;;5107270;28;20055;-68
2022/11/12 08:22:40;;;;;;;21.08;11.20;;;6.90;99.90;;;;;;5086292;28;20071;-69
2022/11/12 08:25:06;;;;;;;19.15;10.98;;;7.00;99.90;;;;;;5107180;28;20072;-69
2022/11/12 08:27:32;;;;;;;18.23;11.63;;;6.90;99.90;;;;;;5105973;28;20384;-68
2022/11/12 08:29:58;;;;;;;18.77;11.27;;;7.00;99.90;;;;;;5107642;28;20020;-68
2022/11/12 08:32:23;;;;;;;26.02;10.45;;;7.10;99.90;;;;;;5105911;28;20368;-68
2022/11/12 08:34:49;;;;;;;17.50;11.05;;;7.10;99.90;;;;;;5097289;28;20024;-68
2022/11/12 08:37:15;;;;;;;23.65;12.38;;;7.10;99.90;;;;;;5077015;28;20379;-68
2022/11/12 08:39:41;;;;;;;19.83;11.25;;;7.10;99.90;;;;;;5096036;28;20044;-69
2022/11/12 08:42:06;;;;;;;13.07;10.40;;;7.20;99.90;;;;;;5094535;27;20744;-68
2022/11/12 08:44:32;;;;;;;21.02;12.57;;;7.20;99.90;;;;;;5094607;28;20529;-68
2022/11/12 08:46:58;;;;;;;18.60;11.05;;;7.20;99.90;;;;;;5096001;27;20038;-68
2022/11/12 08:49:24;;;;;;;19.95;12.40;;;7.20;99.90;;;;;;5095960;28;20081;-68
2022/11/12 08:51:49;;;;;;;21.83;13.80;;;7.20;99.90;;;;;;5094036;28;20040;-69
2022/11/12 08:54:15;;;;;;;18.65;10.93;;;7.20;99.90;;;;;;5097355;28;20452;-69
2022/11/12 08:56:40;;;;;;;22.73;12.48;;;7.30;99.90;;;;;;5102155;28;20031;-69
2022/11/12 08:59:06;;;;;;;22.55;13.93;;;7.40;99.90;;;;;;5092488;28;20020;-68
2022/11/12 09:01:32;;;;;;;19.35;13.20;;;7.40;99.90;;;;;;5098567;28;20030;-68
2022/11/12 09:03:57;;;;;;;22.88;13.90;;;7.40;99.90;;;;;;5095333;28;20509;-68
2022/11/12 09:06:23;;;;;;;23.17;13.90;;;7.60;99.90;;;;;;5093486;28;20042;-68
2022/11/12 09:08:48;;;;;;;25.40;16.23;;;7.60;99.90;;;;;;5091429;28;20073;-69
2022/11/12 09:11:14;;;;;;;25.02;16.15;;;7.60;99.90;;;;;;5093018;28;20388;-68
2022/11/12 09:13:39;;;;;;;28.30;16.95;;;7.70;99.90;;;;;;5096582;28;20031;-68
2022/11/12 09:16:06;;;;;;;28.45;17.85;;;7.70;99.90;;;;;;5092875;28;20038;-69
2022/11/12 09:18:33;;;;;;;27.90;17.15;;;7.80;99.90;;;;;;5091455;28;20029;-69
2022/11/12 09:21:04;;;;;;;29.05;17.02;;;7.80;99.90;;;;;;5097189;28;20035;-68
2022/11/12 09:23:32;;;;;;;31.20;18.15;;;7.90;99.90;;;;;;5094550;28;20047;-68
2022/11/12 09:25:57;;;;;;;28.90;17.80;;;8.00;99.90;;;;;;5102204;28;20055;-69
2022/11/12 09:28:23;;;;;;;29.67;17.83;;;8.10;99.90;;;;;;5077810;28;20023;-69
2022/11/12 09:30:50;;;;;;;29.92;18.75;;;8.20;99.90;;;;;;5098030;28;20054;-68
2022/11/12 09:33:19;;;;;;;30.63;17.33;;;8.30;99.90;;;;;;5093711;28;20024;-69
2022/11/12 09:35:46;;;;;;;30.02;18.02;;;8.40;99.90;;;;;;5100577;28;20032;-69
2022/11/12 09:38:14;;;;;;;40.70;19.80;;;8.40;99.90;;;;;;5079517;28;20387;-68
2022/11/12 09:40:51;;;;;;;25.80;16.55;;;8.60;99.90;;;;;;5084542;28;20027;-69
2022/11/12 09:43:22;;;;;;;24.17;15.77;;;8.70;99.90;;;;;;5096636;28;20027;-69
2022/11/12 09:45:49;;;;;;;30.45;17.33;;;8.80;99.90;;;;;;5096690;28;20095;-68
2022/11/12 09:48:20;;;;;;;27.27;18.00;;;8.90;99.90;;;;;;5095331;28;20059;-70
2022/11/12 09:50:56;;;;;;;28.40;17.02;;;9.00;99.90;;;;;;5096398;28;20032;-68
2022/11/12 09:53:34;;;;;;;35.72;17.15;;;9.10;99.90;;;;;;5096525;28;20027;-69
2022/11/12 09:56:04;;;;;;;25.15;15.77;;;9.20;99.90;;;;;;5095754;28;20085;-69
2022/11/12 09:58:30;;;;;;;21.92;15.55;;;9.30;99.90;;;;;;5091840;28;20307;-69
2022/11/12 10:00:59;;;;;;;31.15;17.73;;;9.50;99.90;;;;;;5093788;28;20464;-68
2022/11/12 10:03:31;;;;;;;25.80;16.67;;;9.60;99.90;;;;;;5094032;28;20020;-69
2022/11/12 10:06:15;;;;;;;25.92;15.75;;;9.70;99.90;;;;;;5097524;28;20054;-69
2022/11/12 10:09:10;;;;;;;24.20;16.65;;;9.80;99.90;;;;;;5096284;28;20051;-69
2022/11/12 10:14:47;;;;;;;21.25;13.98;;;10.10;99.90;;;;;;5098497;28;20058;-69
2022/11/12 10:17:26;;;;;;;19.48;13.35;;;10.20;99.90;;;;;;5093930;28;20433;-71
2022/11/12 10:20:17;;;;;;;20.75;13.30;;;10.40;99.90;;;;;;5093690;28;20430;-70
2022/11/12 10:23:07;;;;;;;21.67;12.95;;;10.50;99.90;;;;;;5097255;28;20047;-69
2022/11/12 10:25:34;;;;;;;18.05;11.95;;;10.60;99.90;;;;;;5096449;28;20673;-69
2022/11/12 10:28:05;;;;;;;18.05;12.93;;;10.70;99.90;;;;;;5093305;28;20074;-71
2022/11/12 10:30:31;;;;;;;22.17;15.93;;;10.70;99.90;;;;;;5094465;28;20034;-69
2022/11/12 10:32:56;;;;;;;22.45;14.10;;;10.90;99.90;;;;;;5095793;28;20027;-70
2022/11/12 10:35:22;;;;;;;21.33;13.15;;;10.80;99.90;;;;;;5095844;28;20383;-70
2022/11/12 10:37:57;;;;;;;20.50;13.48;;;11.00;99.90;;;;;;5092239;28;20118;-70
2022/11/12 10:40:36;;;;;;;19.00;12.50;;;11.00;99.90;;;;;;5095903;28;20103;-70
2022/11/12 10:43:05;;;;;;;20.30;13.07;;;11.10;99.90;;;;;;5098585;28;20111;-69
2022/11/12 10:45:31;;;;;;;19.20;10.95;;;11.10;99.90;;;;;;5097765;28;20039;-69
2022/11/12 10:47:58;;;;;;;17.92;9.43;;;11.10;99.90;;;;;;5077252;28;20036;-69
2022/11/12 10:50:39;;;;;;;12.38;9.18;;;11.20;99.90;;;;;;5094548;28;20067;-71
2022/11/12 10:53:09;;;;;;;14.68;10.15;;;11.30;99.90;;;;;;5096253;28;20122;-71
2022/11/12 10:55:37;;;;;;;16.13;10.07;;;11.50;99.90;;;;;;5098567;28;20028;-70
2022/11/12 10:58:12;;;;;;;16.55;11.70;;;11.60;99.90;;;;;;5098473;28;20430;-69
2022/11/12 11:00:51;;;;;;;14.63;11.10;;;11.60;99.90;;;;;;5095331;28;20016;-69
2022/11/12 11:03:25;;;;;;;14.60;10.13;;;11.70;99.90;;;;;;5099779;28;20073;-70
2022/11/12 11:05:59;;;;;;;14.80;10.13;;;11.80;99.90;;;;;;5093901;28;20027;-71
2022/11/12 11:08:41;;;;;;;15.65;11.23;;;11.90;99.90;;;;;;5097066;28;20101;-69
2022/11/12 11:11:16;;;;;;;16.40;10.55;;;11.90;99.90;;;;;;5096831;28;20089;-70
2022/11/12 11:13:46;;;;;;;14.65;10.48;;;12.00;99.90;;;;;;5095473;28;20039;-70
2022/11/12 11:16:46;;;;;;;14.10;10.48;;;12.00;99.90;;;;;;5094537;28;20031;-71
2022/11/12 11:19:12;;;;;;;16.15;10.20;;;12.10;99.90;;;;;;5097489;28;20032;-70
2022/11/12 11:21:50;;;;;;;18.38;11.38;;;12.20;99.90;;;;;;5092329;28;20606;-70
2022/11/12 11:24:35;;;;;;;14.57;11.18;;;12.10;99.90;;;;;;5094022;28;20024;-71
2022/11/12 11:27:11;;;;;;;19.08;11.07;;;12.20;99.90;;;;;;5095807;28;20323;-70
2022/11/12 11:29:55;;;;;;;18.23;11.68;;;12.30;99.90;;;;;;5096147;28;20118;-70
2022/11/12 11:32:48;;;;;;;15.32;10.85;;;12.40;99.90;;;;;;5077864;28;20423;-69
2022/11/12 11:35:26;;;;;;;16.00;10.48;;;12.50;99.90;;;;;;5090973;28;20032;-70
2022/11/12 11:38:10;;;;;;;14.25;10.93;;;12.50;99.90;;;;;;5094049;28;20030;-69
2022/11/12 11:40:40;;;;;;;15.20;10.57;;;12.60;99.90;;;;;;5094273;28;20028;-69
2022/11/12 11:43:27;;;;;;;17.38;11.43;;;12.60;99.90;;;;;;5095862;28;20463;-70
2022/11/12 11:46:32;;;;;;;15.65;11.18;;;12.70;99.90;;;;;;5092299;28;20039;-70
2022/11/12 11:49:16;;;;;;;15.18;10.70;;;12.80;99.90;;;;;;5097544;28;20036;-70
2022/11/12 11:52:00;;;;;;;13.27;9.93;;;12.90;99.90;;;;;;5090580;28;20051;-70
2022/11/12 11:54:51;;;;;;;15.77;10.70;;;12.90;99.90;;;;;;5093715;28;20063;-70
2022/11/12 11:57:39;;;;;;;14.70;10.52;;;12.90;99.90;;;;;;5082463;28;20027;-70
2022/11/12 12:00:29;;;;;;;16.63;10.52;;;13.00;99.90;;;;;;5094888;28;20031;-72
2022/11/12 12:02:54;;;;;;;14.55;10.77;;;13.10;99.90;;;;;;5082399;28;20036;-73
2022/11/12 12:05:39;;;;;;;18.35;11.05;;;13.10;99.90;;;;;;5106562;28;20028;-71
2022/11/12 12:08:09;;;;;;;14.20;10.48;;;13.20;99.90;;;;;;5111595;28;20027;-72
2022/11/12 12:11:08;;;;;;;17.77;10.20;;;13.20;99.90;;;;;;5107509;28;20028;-71
2022/11/12 12:14:05;;;;;;;15.20;10.75;;;13.20;99.90;;;;;;5109779;28;20034;-70
2022/11/12 12:16:52;;;;;;;12.88;9.88;;;13.20;99.90;;;;;;5102397;28;20030;-71
2022/11/12 12:19:26;;;;;;;16.17;11.80;;;13.30;99.90;;;;;;5105864;28;20047;-71
2022/11/12 12:21:55;;;;;;;15.82;11.38;;;13.30;99.90;;;;;;5106685;28;20114;-71
2022/11/12 12:24:34;;;;;;;17.73;9.45;;;13.30;99.90;;;;;;5103982;28;20016;-70
2022/11/12 12:27:08;;;;;;;15.40;10.50;;;13.40;99.90;;;;;;5110941;28;20069;-70
2022/11/12 12:29:43;;;;;;;15.48;10.02;;;13.40;99.90;;;;;;5102295;27;20023;-71
2022/11/12 12:32:18;;;;;;;14.35;10.30;;;13.40;99.90;;;;;;5093285;28;20087;-70
2022/11/12 12:35:04;;;;;;;15.38;10.63;;;13.50;99.90;;;;;;5103756;28;20031;-70
2022/11/12 12:37:52;;;;;;;14.45;9.68;;;13.50;99.90;;;;;;5107045;28;20417;-70
2022/11/12 12:40:40;;;;;;;15.35;10.70;;;13.50;99.90;;;;;;5112618;28;20077;-72
2022/11/12 12:43:15;;;;;;;16.80;10.07;;;13.50;99.90;;;;;;5109525;28;20068;-71
2022/11/12 12:45:45;;;;;;;14.88;10.57;;;13.60;99.90;;;;;;5101889;28;20035;-70
2022/11/12 12:48:23;;;;;;;14.90;10.27;;;13.50;99.90;;;;;;5109697;28;20024;-71
2022/11/12 12:50:51;;;;;;;20.45;11.98;;;13.60;99.90;;;;;;5103542;28;20038;-71
2022/11/12 12:53:25;;;;;;;16.23;11.45;;;13.60;99.90;;;;;;5102317;27;20039;-70
2022/11/12 12:55:53;;;;;;;15.60;11.00;;;13.50;99.90;;;;;;5106254;28;20024;-70
2022/11/12 12:58:32;;;;;;;19.98;11.50;;;13.50;99.90;;;;;;5104296;28;20020;-70
2022/11/12 13:01:08;;;;;;;17.35;12.45;;;13.50;99.90;;;;;;5104497;28;20034;-71
2022/11/12 13:03:42;;;;;;;20.88;12.02;;;13.60;99.90;;;;;;5112194;28;20522;-72
2022/11/12 13:06:14;;;;;;;20.00;11.57;;;13.60;99.90;;;;;;5101835;28;20024;-71
2022/11/12 13:08:40;;;;;;;15.02;10.52;;;13.60;99.90;;;;;;5103717;28;20063;-70
2022/11/12 13:11:06;;;;;;;12.25;9.05;;;13.60;99.90;;;;;;5098199;28;20043;-71